Lumaghi Heights, Illinois
Current Conditions -  °F | °C
As of 6:58 PM on Monday 26 Jan 2015 (Local Time) from KBLV Reporting Station
Overcast Overcast  
Wind Chill: 33°   Ceiling: 4300
Heat Index: 33°   Visibility: 10mi
Dew Point: 31°   Wind: 2mph
Humidity: 93%   Direction: 170°S
Pressure: 29.92"   Gusts: NA
Location:  38.6902°N, 89.9816°W
Report Text: KBLV 270058Z AUTO 17002KT 10SM OVC043 00/M01 A2992 RMK AO2 SLP140 T00041006
Loading
Personal Weather Stations






























Interactive Weather Map New forecast layout! Learn more

10-Day Weather Forecast

Advertisements
Track Severe Weather on mobile